Weather observations for the past three days for
Estherville, Estherville Municipal Airport
| Date | Time (cdt) | Wind (mph) | Vis. (mi.) | Weather | Sky Cond. | Temperature (ºF) | Relative Humidity | Wind Chill (°F) | Heat Index (°F) | Pressure | Precipitation (in) | ||||||
|---|---|---|---|---|---|---|---|---|---|---|---|---|---|---|---|---|---|
| Air | Dwpt | 6 hour | altimeter (in) | sea level (mb) | 1 hr | 3 hr | 6 hr | ||||||||||
| Max. | Min. | ||||||||||||||||
| 10 | 12:49 | W 20 G 29 | 10.00 | A Few Clouds | FEW095 | 66.9 | 21.9 | 66.9 | 39 | 18% | 30.11 | 1019.9 | |||||
| 10 | 11:49 | W 22 G 32 | 10.00 | Fair and Breezy | CLR | 64.9 | 23 | 20% | 30.12 | 1020.3 | |||||||
| 10 | 10:49 | W 16 G 29 | 10.00 | Fair | CLR | 62.1 | 26.1 | 25% | 30.11 | 1020.1 | |||||||
| 10 | 09:49 | W 18 G 29 | 10.00 | Fair | CLR | 60.1 | 26.1 | 27% | 30.12 | 1020.3 | |||||||
| 10 | 08:49 | W 16 G 25 | 10.00 | Fair | CLR | 55.9 | 26.1 | 32% | 30.13 | 1020.3 | |||||||
| 10 | 07:49 | W 13 | 10.00 | Fair | CLR | 50 | 26.1 | 39% | 46 | 30.12 | 1020.2 | ||||||
| 10 | 06:49 | W 7 | 10.00 | Fair | CLR | 37.9 | 25 | 39.9 | 34 | 60% | 33 | 30.1 | 1019.8 | ||||
| 10 | 05:49 | W 9 | 10.00 | Fair | CLR | 35.1 | 24.1 | 64% | 29 | 30.09 | 1019.6 | ||||||
| 10 | 04:49 | SW 8 | 10.00 | Fair | CLR | 35.1 | 24.1 | 64% | 29 | 30.09 | 1019.4 | ||||||
| 10 | 03:49 | W 8 | 10.00 | Fair | CLR | 35.1 | 23 | 61% | 29 | 30.07 | 1018.8 | ||||||
| 10 | 02:49 | W 8 | 10.00 | Fair | CLR | 36 | 23 | 59% | 30 | 30.05 | 1018.1 | ||||||
| 10 | 01:49 | NW 7 | 10.00 | Fair | CLR | 37.9 | 21.9 | 52% | 33 | 30.05 | 1018.0 | ||||||
| 10 | 00:49 | NW 7 | 10.00 | Fair | CLR | 39.9 | 21.9 | 60.1 | 39 | 49% | 36 | 30.04 | 1017.8 | ||||
| 09 | 23:49 | W 7 | 10.00 | Fair | CLR | 39.9 | 21 | 47% | 36 | 30.03 | 1017.2 | ||||||
| 09 | 22:49 | NW 7 | 10.00 | Fair | CLR | 43 | 21 | 42% | 39 | 30.01 | 1016.6 | ||||||
| 09 | 21:49 | NW 9 | 10.00 | Fair | CLR | 48 | 21 | 34% | 44 | 29.99 | 1016.0 | ||||||
| 09 | 20:49 | N 10 | 10.00 | Fair | CLR | 53.1 | 19.9 | 27% | 29.96 | 1014.6 | |||||||
| 09 | 19:49 | N 18 G 26 | 10.00 | Fair | CLR | 57 | 19 | 23% | 29.93 | 1013.6 | |||||||
| 09 | 18:49 | N 17 G 32 | 10.00 | Fair | CLR | 59 | 19 | 64.9 | 59 | 21% | 29.91 | 1012.9 | |||||
| 09 | 17:49 | NW 23 G 31 | 10.00 | Fair and Breezy | CLR | 62.1 | 21 | 21% | 29.89 | 1012.0 | |||||||
| 09 | 16:49 | N 22 G 36 | 10.00 | Fair and Breezy | CLR | 63 | 24.1 | 23% | 29.87 | 1011.6 | |||||||
| 09 | 15:49 | N 25 G 36 | 10.00 | Fair and Breezy | CLR | 63 | 25 | 24% | 29.86 | 1011.2 | |||||||
| 09 | 14:49 | NW 22 G 37 | 10.00 | Fair and Breezy | CLR | 63 | 26.1 | 25% | 29.84 | 1010.6 | |||||||
| 09 | 13:49 | N 21 G 32 | 10.00 | Fair and Breezy | CLR | 63 | 28 | 27% | 29.83 | 1010.3 | |||||||
| 09 | 12:49 | N 15 G 32 | 10.00 | Fair | CLR | 61 | 32 | 61 | 51.1 | 34% | 29.82 | 1010.1 | |||||
| 09 | 11:49 | N 21 G 30 | 10.00 | Fair and Breezy | CLR | 60.1 | 34 | 38% | 29.81 | 1009.6 | |||||||
| 09 | 10:49 | N 20 G 30 | 10.00 | Fair | CLR | 57.9 | 37.9 | 48% | 29.79 | 1008.9 | |||||||
| 09 | 09:49 | N 20 | 10.00 | Overcast | FEW030 OVC080 | 55 | 42.1 | 62% | 29.78 | 1008.2 | |||||||
| 09 | 08:49 | NW 18 | 10.00 | Mostly Cloudy | BKN070 BKN110 | 55.9 | 39.9 | 55% | 29.76 | 1007.4 | |||||||
| 09 | 07:49 | W 7 | 10.00 | Overcast | BKN100 OVC120 | 53.1 | 35.1 | 51% | 29.73 | 1006.6 | |||||||
| 09 | 06:49 | N 10 | 10.00 | Fair | CLR | 52 | 34 | 55 | 43 | 50% | 29.73 | 1006.2 | |||||
| 09 | 05:49 | NW 16 | 10.00 | Fair | CLR | 53.1 | 28.9 | 40% | 29.69 | 1005.1 | |||||||
| 09 | 04:49 | SW 10 | 10.00 | NULL | NULL | 46.9 | 28 | 48% | 43 | 29.64 | 1003.2 | ||||||
| 09 | 03:49 | SW 9 | 10.00 | Fair | CLR | 48 | 28 | 46% | 44 | 29.64 | 1003.6 | ||||||
| 09 | 02:49 | SW 6 | 10.00 | Fair | CLR | 44.1 | 28.9 | 55% | 41 | 29.65 | 1003.8 | ||||||
| 09 | 01:49 | SW 9 | 10.00 | Fair | CLR | 43 | 26.1 | 51% | 38 | 29.68 | 1004.9 | ||||||
| 09 | 00:49 | W 8 | 10.00 | Fair | CLR | 44.1 | 25 | 73.9 | 44.1 | 47% | 40 | 29.69 | 1005.3 | ||||
| 08 | 23:49 | W 8 | 10.00 | Fair | CLR | 46.9 | 25 | 42% | 44 | 29.69 | 1005.3 | ||||||
| 08 | 22:49 | NW 9 | 10.00 | Fair | CLR | 52 | 25 | 35% | 29.7 | 1005.4 | |||||||
| 08 | 21:49 | NW 10 | 10.00 | Fair | CLR | 57.9 | 26.1 | 29% | 29.68 | 1004.8 | |||||||
| 08 | 20:49 | N 15 | 10.00 | A Few Clouds | FEW100 | 64.9 | 28.9 | 26% | 29.66 | 1003.9 | |||||||
| 08 | 19:49 | NW 12 | 10.00 | Mostly Cloudy | BKN110 | 70 | 28 | 21% | 29.63 | 1003.2 | |||||||
| 08 | 18:49 | NW 20 G 30 | 10.00 | Fair | CLR | 73.9 | 28.9 | 77 | 71.1 | 19% | 29.62 | 1003.0 | |||||
| 08 | 17:49 | W 20 | 10.00 | A Few Clouds | FEW120 | 77 | 26.1 | 15% | 76 | 29.62 | 1002.8 | ||||||
| 08 | 16:49 | W 13 G 25 | 10.00 | Mostly Cloudy | BKN110 | 75 | 27 | 17% | 76 | 29.63 | 1003.1 | ||||||
| 08 | 15:49 | W 20 G 24 | 10.00 | Partly Cloudy | SCT110 | 75 | 26.1 | 16% | 76 | 29.65 | 1003.8 | ||||||
| 08 | 14:49 | W 16 G 25 | 10.00 | Mostly Cloudy | BKN110 | 75 | 26.1 | 16% | 76 | 29.67 | 1004.6 | ||||||
| 08 | 13:49 | W 17 G 25 | 10.00 | Fair | CLR | 73 | 25 | 17% | 29.7 | 1005.5 | |||||||
| 08 | 12:49 | W 15 G 26 | 10.00 | Fair | CLR | 71.1 | 21.9 | 72 | 39.9 | 16% | 29.72 | 1006.4 | |||||
| 08 | 11:49 | W 14 G 21 | 10.00 | Fair | CLR | 70 | 21 | 16% | 29.75 | 1007.5 | |||||||
| 08 | 10:49 | W 13 G 28 | 10.00 | Fair | CLR | 68 | 23 | 18% | 29.77 | 1007.9 | |||||||
| 08 | 09:49 | W 13 | 10.00 | Fair | CLR | 63 | 23 | 22% | 29.79 | 1008.6 | |||||||
| 08 | 08:49 | SW 8 | 10.00 | Partly Cloudy | SCT110 | 55.9 | 28 | 34% | 29.8 | 1009.0 | |||||||
| 08 | 07:49 | S 6 | 10.00 | Fair | CLR | 48.9 | 27 | 43% | 47 | 29.8 | 1009.2 | ||||||
| 08 | 06:49 | S 6 | 10.00 | Fair | CLR | 39.9 | 25 | 43 | 37.9 | 55% | 36 | 29.8 | 1009.4 | ||||
| 08 | 05:49 | S 6 | 10.00 | Partly Cloudy | SCT120 | 41 | 24.1 | 51% | 38 | 29.79 | 1009.1 | ||||||
| 08 | 04:49 | S 8 | 10.00 | Fair | CLR | 37.9 | 23 | 55% | 33 | 29.8 | 1009.4 | ||||||
| 08 | 03:49 | S 6 | 10.00 | Fair | CLR | 41 | 23 | 49% | 38 | 29.8 | 1009.4 | ||||||
| 08 | 02:49 | Calm | 10.00 | Fair | CLR | 39.9 | 23 | 51% | 29.81 | 1009.8 | |||||||
| 08 | 01:49 | S 5 | 10.00 | Fair | CLR | 39.9 | 21 | 47% | 37 | 29.82 | 1010.2 | ||||||
| 08 | 00:49 | E 6 | 10.00 | Fair | CLR | 44.1 | 21 | 63 | 39.9 | 40% | 41 | 29.83 | 1010.3 | ||||
| 07 | 23:49 | Calm | 10.00 | Fair | CLR | 41 | 21 | 45% | 29.84 | 1010.8 | |||||||
| 07 | 22:49 | NE 7 | 10.00 | Fair | CLR | 46 | 21.9 | 38% | 43 | 29.83 | 1010.6 | ||||||
| 07 | 21:49 | NW 3 | 10.00 | Fair | CLR | 50 | 19 | 29% | 29.83 | 1010.4 | |||||||
| 07 | 20:49 | N 5 | 10.00 | Fair | CLR | 55.9 | 19.9 | 24% | 29.81 | 1009.8 | |||||||
| 07 | 19:49 | W 9 | 10.00 | Fair | CLR | 61 | 19 | 20% | 29.8 | 1009.2 | |||||||
| 07 | 18:49 | W 5 | 10.00 | Fair | CLR | 62.1 | 19.9 | 64 | 57.9 | 20% | 29.8 | 1009.3 | |||||
| 07 | 17:49 | W 9 | 10.00 | Fair | CLR | 63 | 19.9 | 19% | 29.8 | 1009.7 | |||||||
| 07 | 16:49 | NW 15 G 23 | 10.00 | Fair | CLR | 63 | 21.9 | 21% | 29.82 | 1010.1 | |||||||
| 07 | 15:49 | Calm | 10.00 | A Few Clouds | FEW085 | 61 | 24.1 | 24% | 29.83 | 1010.4 | |||||||
| Date | Time (cdt) | Wind (mph) | Vis. (mi.) | Weather | Sky Cond. | Air | Dwpt | Max. | Min. | Relative Humidity | Wind Chill (°F) | Heat Index (°F) | altimeter (in) | sea level (mb) | 1 hr | 3 hr | 6 hr |
| 6 hour | |||||||||||||||||
| Temperature (ºF) | Pressure | Precipitation (in) | |||||||||||||||